createdAt,value
2018-05-18T00:02:28.114Z,101820.83
2018-05-18T00:04:56.237Z,101824.62
2018-05-18T00:07:24.367Z,101831.41
2018-05-18T00:09:52.514Z,101827.45
2018-05-18T00:12:20.655Z,101821.45
2018-05-18T00:14:48.761Z,101823.75
2018-05-18T00:17:16.893Z,101821.09
2018-05-18T00:19:45.031Z,101820.86
2018-05-18T00:22:13.176Z,101825.59
2018-05-18T00:24:41.323Z,101826.08
2018-05-18T00:27:09.494Z,101824.20
2018-05-18T00:29:37.628Z,101819.61
2018-05-18T00:32:05.776Z,101824.16
2018-05-18T00:34:33.887Z,101824.59
2018-05-18T00:37:02.049Z,101828.64
2018-05-18T00:39:30.200Z,101825.50
2018-05-18T00:41:58.309Z,101820.83
2018-05-18T00:44:26.439Z,101814.39
2018-05-18T00:46:54.861Z,101823.45
2018-05-18T00:49:22.992Z,101814.82
2018-05-18T00:51:51.106Z,101817.93
2018-05-18T00:54:19.252Z,101814.77
2018-05-18T00:56:47.373Z,101820.28
2018-05-18T00:59:15.696Z,101821.22
2018-05-18T01:01:43.829Z,101811.42
2018-05-18T01:04:11.957Z,101819.72
2018-05-18T01:06:40.081Z,101817.77
2018-05-18T01:09:08.436Z,101820.97
2018-05-18T01:11:36.554Z,101816.94
2018-05-18T01:14:04.696Z,101813.09
2018-05-18T01:16:32.833Z,101813.74
2018-05-18T01:19:00.957Z,101812.55
2018-05-18T01:21:29.096Z,101816.19
2018-05-18T01:23:57.257Z,101816.63
2018-05-18T01:26:25.381Z,101814.65
2018-05-18T01:28:53.525Z,101819.24
2018-05-18T01:31:21.687Z,101816.20
2018-05-18T01:33:49.799Z,101814.43
2018-05-18T01:36:18.511Z,101811.45
2018-05-18T01:38:46.638Z,101811.70
2018-05-18T01:41:14.751Z,101811.12
2018-05-18T01:43:42.922Z,101810.81
2018-05-18T01:46:11.241Z,101810.92
2018-05-18T01:48:39.347Z,101811.35
2018-05-18T01:51:07.468Z,101808.45
2018-05-18T01:53:35.621Z,101815.28
2018-05-18T01:56:03.716Z,101816.65
2018-05-18T01:58:31.852Z,101807.67
2018-05-18T02:00:59.966Z,101809.79
2018-05-18T02:03:28.095Z,101811.52
2018-05-18T02:05:56.211Z,101812.80
2018-05-18T02:08:24.349Z,101817.46
2018-05-18T02:10:52.467Z,101815.48
2018-05-18T02:13:20.584Z,101817.57
2018-05-18T02:15:48.748Z,101818.62
2018-05-18T02:18:16.875Z,101816.33
2018-05-18T02:20:44.996Z,101822.58
2018-05-18T02:23:13.323Z,101822.98
2018-05-18T02:25:41.435Z,101822.24
2018-05-18T02:28:09.561Z,101818.30
2018-05-18T02:30:37.723Z,101823.81
2018-05-18T02:33:05.841Z,101822.77
2018-05-18T02:35:33.980Z,101824.03
2018-05-18T02:38:02.261Z,101818.52
2018-05-18T02:40:30.406Z,101821.94
2018-05-18T02:42:58.535Z,101818.71
2018-05-18T02:45:26.799Z,101823.28
2018-05-18T02:47:54.952Z,101827.22
2018-05-18T02:50:23.080Z,101821.53
2018-05-18T02:52:51.201Z,101816.94
2018-05-18T02:55:19.380Z,101818.81
2018-05-18T02:57:47.506Z,101821.64
2018-05-18T03:00:15.635Z,101825.27
2018-05-18T03:02:44.187Z,101819.74
2018-05-18T03:05:12.423Z,101812.91
2018-05-18T03:07:41.101Z,101813.31
2018-05-18T03:10:09.249Z,101806.16
2018-05-18T03:12:37.376Z,101816.94
2018-05-18T03:15:05.522Z,101810.83
2018-05-18T03:17:33.640Z,101813.42
2018-05-18T03:20:01.771Z,101819.13
2018-05-18T03:22:29.911Z,101814.87
2018-05-18T03:24:58.033Z,101815.20
2018-05-18T03:27:26.147Z,101814.78
2018-05-18T03:29:54.297Z,101817.27
2018-05-18T03:32:22.411Z,101821.21
2018-05-18T03:34:50.545Z,101819.13
2018-05-18T03:37:18.877Z,101819.97
2018-05-18T03:39:47.068Z,101819.86
2018-05-18T03:42:15.241Z,101824.13
2018-05-18T03:44:43.365Z,101825.03
2018-05-18T03:47:11.576Z,101832.23
2018-05-18T03:49:39.701Z,101831.80
2018-05-18T03:52:07.832Z,101829.58
2018-05-18T03:54:35.954Z,101833.66
2018-05-18T03:57:04.083Z,101839.77
2018-05-18T03:59:32.213Z,101840.09
2018-05-18T04:02:12.364Z,101835.41
2018-05-18T04:08:11.069Z,101842.45
2018-05-18T04:10:39.188Z,101848.03
2018-05-18T04:13:07.343Z,101847.75
2018-05-18T04:15:35.443Z,101847.85
2018-05-18T04:18:03.582Z,101847.64
2018-05-18T04:20:31.691Z,101852.94
2018-05-18T04:22:59.867Z,101854.60
2018-05-18T04:25:27.942Z,101865.70
2018-05-18T04:27:56.055Z,101864.98
2018-05-18T04:30:24.231Z,101865.66
2018-05-18T04:32:52.305Z,101872.82
2018-05-18T04:35:20.429Z,101871.05
2018-05-18T04:37:48.558Z,101867.22
2018-05-18T04:40:16.694Z,101870.02
2018-05-18T04:42:44.829Z,101870.62
2018-05-18T04:45:12.949Z,101880.03
2018-05-18T04:47:41.074Z,101876.22
2018-05-18T04:50:09.218Z,101876.88
2018-05-18T04:52:37.344Z,101878.92
2018-05-18T04:55:05.472Z,101876.34
2018-05-18T04:57:33.616Z,101864.03
2018-05-18T05:00:01.727Z,101869.23
2018-05-18T05:02:29.861Z,101871.84
2018-05-18T05:04:57.981Z,101874.51
2018-05-18T05:07:26.119Z,101877.66
2018-05-18T05:09:54.276Z,101879.23
2018-05-18T05:12:22.400Z,101889.58
2018-05-18T05:14:50.512Z,101889.00
2018-05-18T05:17:18.833Z,101885.67
2018-05-18T05:19:46.959Z,101882.48
2018-05-18T05:22:15.083Z,101887.77
2018-05-18T05:24:43.208Z,101888.26
2018-05-18T05:27:11.334Z,101889.56
2018-05-18T05:29:39.446Z,101896.12
2018-05-18T05:32:07.615Z,101895.73
2018-05-18T05:34:35.741Z,101895.06
2018-05-18T05:37:04.030Z,101896.20
2018-05-18T05:39:32.169Z,101896.53
2018-05-18T05:42:00.285Z,101888.22
2018-05-18T05:44:28.399Z,101894.79
2018-05-18T05:46:56.927Z,101896.04
2018-05-18T05:49:25.011Z,101893.94
2018-05-18T05:51:53.133Z,101897.36
2018-05-18T05:54:21.269Z,101898.02
2018-05-18T05:56:49.397Z,101902.84
2018-05-18T05:59:17.539Z,101904.56
2018-05-18T06:01:45.659Z,101899.88
2018-05-18T06:04:13.778Z,101907.48
2018-05-18T06:06:41.901Z,101904.50
2018-05-18T06:09:10.064Z,101905.01
2018-05-18T06:11:38.199Z,101899.40
2018-05-18T06:14:06.321Z,101903.25
2018-05-18T06:16:35.167Z,101904.52
2018-05-18T06:19:03.315Z,101904.41
2018-05-18T06:21:31.453Z,101908.61
2018-05-18T06:23:59.593Z,101906.30
2018-05-18T06:26:27.720Z,101907.22
2018-05-18T06:28:55.908Z,101906.23
2018-05-18T06:31:24.064Z,101918.48
2018-05-18T06:33:52.203Z,101909.95
2018-05-18T06:36:20.325Z,101908.72
2018-05-18T06:38:48.480Z,101920.55
2018-05-18T06:41:16.629Z,101908.85
2018-05-18T06:43:44.748Z,101918.11
2018-05-18T06:46:12.877Z,101920.66
2018-05-18T06:48:41.020Z,101919.02
2018-05-18T06:51:09.137Z,101918.85
2018-05-18T06:53:37.255Z,101924.09
2018-05-18T06:56:05.367Z,101921.84
2018-05-18T06:58:37.237Z,101922.94
2018-05-18T07:01:05.315Z,101913.02
2018-05-18T07:03:33.440Z,101908.53
2018-05-18T07:06:01.573Z,101914.77
2018-05-18T07:08:29.822Z,101906.98
2018-05-18T07:10:57.940Z,101914.46
2018-05-18T07:13:26.058Z,101917.27
2018-05-18T07:15:54.205Z,101916.98
2018-05-18T07:18:22.330Z,101917.72
2018-05-18T07:20:50.458Z,101907.40
2018-05-18T07:23:18.624Z,101908.31
2018-05-18T07:25:46.771Z,101908.73
2018-05-18T07:28:14.888Z,101909.17
2018-05-18T07:30:43.209Z,101917.16
2018-05-18T07:33:11.323Z,101911.77
2018-05-18T07:35:39.440Z,101920.79
2018-05-18T07:38:07.582Z,101919.36
2018-05-18T07:40:35.698Z,101915.91
2018-05-18T07:43:03.962Z,101921.63
2018-05-18T07:45:32.272Z,101918.72
2018-05-18T07:48:00.426Z,101919.56
2018-05-18T07:50:28.549Z,101922.43
2018-05-18T07:52:56.688Z,101918.67
2018-05-18T07:55:24.827Z,101919.28
2018-05-18T07:57:52.963Z,101921.97
2018-05-18T08:00:21.110Z,101919.91
2018-05-18T08:02:49.215Z,101923.05
2018-05-18T08:05:17.359Z,101925.25
2018-05-18T08:07:45.536Z,101923.42
2018-05-18T08:10:13.628Z,101920.61
2018-05-18T08:12:41.765Z,101919.20
2018-05-18T08:15:09.976Z,101920.23
2018-05-18T08:17:38.030Z,101918.15
2018-05-18T08:20:06.166Z,101915.51
2018-05-18T08:22:34.289Z,101918.57
2018-05-18T08:25:02.407Z,101915.86
2018-05-18T08:27:30.535Z,101925.73
2018-05-18T08:29:58.883Z,101924.98
2018-05-18T08:32:26.996Z,101925.60
2018-05-18T08:34:55.165Z,101922.70
2018-05-18T08:37:23.434Z,101920.52
2018-05-18T08:39:51.565Z,101922.39
2018-05-18T08:42:19.708Z,101924.43
2018-05-18T08:44:47.848Z,101926.51
2018-05-18T08:47:15.974Z,101923.73
2018-05-18T08:49:44.103Z,101921.89
2018-05-18T08:52:13.037Z,101919.47
2018-05-18T08:54:41.165Z,101918.85
2018-05-18T08:57:09.300Z,101923.63
2018-05-18T08:59:37.456Z,101928.17
2018-05-18T09:02:05.573Z,101927.41
2018-05-18T09:04:33.684Z,101922.72
2018-05-18T09:07:01.829Z,101921.26
2018-05-18T09:09:29.938Z,101918.59
2018-05-18T09:11:58.073Z,101917.45
2018-05-18T09:14:26.391Z,101924.59
2018-05-18T09:16:54.529Z,101916.96
2018-05-18T09:19:22.663Z,101923.91
2018-05-18T09:21:50.789Z,101926.22
2018-05-18T09:24:18.914Z,101921.75
2018-05-18T09:26:47.044Z,101921.75
2018-05-18T09:29:15.155Z,101921.34
2018-05-18T09:31:43.300Z,101913.39
2018-05-18T09:34:11.508Z,101914.75
2018-05-18T09:36:39.770Z,101911.28
2018-05-18T09:39:07.886Z,101905.41
2018-05-18T09:41:36.003Z,101903.97
2018-05-18T09:44:04.141Z,101898.77
2018-05-18T09:46:32.261Z,101903.72
2018-05-18T09:49:00.389Z,101911.59
2018-05-18T09:51:28.529Z,101909.14
2018-05-18T09:53:56.646Z,101904.00
2018-05-18T09:56:24.788Z,101904.03
2018-05-18T09:58:52.936Z,101907.86
2018-05-18T10:01:21.064Z,101909.36
2018-05-18T10:03:49.170Z,101910.09
2018-05-18T10:06:17.309Z,101904.95
2018-05-18T10:08:45.439Z,101902.17
2018-05-18T10:11:13.572Z,101908.72
2018-05-18T10:13:41.714Z,101902.73
2018-05-18T10:16:09.819Z,101914.89
2018-05-18T10:18:37.946Z,101906.17
2018-05-18T10:21:06.088Z,101911.37
2018-05-18T10:23:34.213Z,101905.67
2018-05-18T10:26:02.319Z,101899.00
2018-05-18T10:28:30.451Z,101908.77
2018-05-18T10:30:58.591Z,101901.16
2018-05-18T10:33:26.714Z,101899.91
2018-05-18T10:35:54.853Z,101895.61
2018-05-18T10:38:22.979Z,101891.66
2018-05-18T10:40:51.109Z,101892.00
2018-05-18T10:43:19.234Z,101885.30
2018-05-18T10:45:47.355Z,101889.25
2018-05-18T10:48:15.468Z,101879.68
2018-05-18T10:50:46.549Z,101888.42
2018-05-18T10:53:14.699Z,101885.99
2018-05-18T10:55:42.804Z,101881.77
2018-05-18T10:58:11.253Z,101885.33
2018-05-18T11:00:39.373Z,101883.94
2018-05-18T11:03:07.504Z,101881.19
2018-05-18T11:05:35.622Z,101877.67
2018-05-18T11:08:03.760Z,101875.70
2018-05-18T11:10:31.881Z,101877.18
2018-05-18T11:13:00.029Z,101877.67
2018-05-18T11:15:28.170Z,101878.79
2018-05-18T11:17:56.304Z,101871.98
2018-05-18T11:20:24.420Z,101868.66
2018-05-18T11:22:52.546Z,101860.42
2018-05-18T11:25:20.661Z,101856.41
2018-05-18T11:27:48.800Z,101860.27
2018-05-18T11:30:16.918Z,101856.27
2018-05-18T11:32:45.045Z,101859.95
2018-05-18T11:35:13.162Z,101858.36
2018-05-18T11:37:41.335Z,101853.23
2018-05-18T11:40:09.468Z,101846.68
2018-05-18T11:42:37.612Z,101846.13
2018-05-18T11:45:05.738Z,101848.47
2018-05-18T11:47:33.887Z,101859.20
2018-05-18T11:50:02.005Z,101848.00
2018-05-18T11:52:30.142Z,101841.62
2018-05-18T11:54:58.312Z,101842.73
2018-05-18T11:57:26.489Z,101844.16
2018-05-18T11:59:54.609Z,101837.98
2018-05-18T12:02:22.727Z,101847.24
2018-05-18T12:04:50.853Z,101840.84
2018-05-18T12:07:18.985Z,101839.09
2018-05-18T12:09:47.107Z,101840.33
2018-05-18T12:12:15.238Z,101833.86
2018-05-18T12:14:43.365Z,101829.48
2018-05-18T12:17:11.492Z,101834.97
2018-05-18T12:19:39.625Z,101822.50
2018-05-18T12:22:07.749Z,101824.02
2018-05-18T12:24:35.858Z,101818.52
2018-05-18T12:27:04.009Z,101818.34
2018-05-18T12:29:32.219Z,101807.34
2018-05-18T12:32:00.360Z,101817.45
2018-05-18T12:34:28.521Z,101809.16
2018-05-18T12:36:56.619Z,101803.51
2018-05-18T12:39:24.762Z,101810.36
2018-05-18T12:41:52.875Z,101797.93
2018-05-18T12:44:21.014Z,101790.32
2018-05-18T12:46:49.145Z,101792.92
2018-05-18T12:49:17.307Z,101799.31
2018-05-18T12:51:45.474Z,101796.67
2018-05-18T12:54:13.597Z,101793.17
2018-05-18T12:56:41.752Z,101795.62
2018-05-18T12:59:09.880Z,101792.49
2018-05-18T13:01:38.005Z,101790.83
2018-05-18T13:04:06.169Z,101798.44
2018-05-18T13:06:34.299Z,101788.89
2018-05-18T13:09:02.422Z,101792.46
2018-05-18T13:11:30.534Z,101791.06
2018-05-18T13:13:58.665Z,101788.29
2018-05-18T13:16:26.785Z,101784.00
2018-05-18T13:18:54.906Z,101785.45
2018-05-18T13:21:23.033Z,101795.42
2018-05-18T13:23:51.161Z,101792.28
2018-05-18T13:26:19.320Z,101782.52
2018-05-18T13:28:47.460Z,101777.43
2018-05-18T13:31:15.574Z,101785.81
2018-05-18T13:33:43.700Z,101783.75
2018-05-18T13:36:11.835Z,101782.39
2018-05-18T13:38:39.988Z,101785.89
2018-05-18T13:41:08.111Z,101775.92
2018-05-18T13:43:36.237Z,101781.95
2018-05-18T13:46:04.365Z,101777.40
2018-05-18T13:48:32.697Z,101770.48
2018-05-18T13:51:00.831Z,101771.87
2018-05-18T13:53:28.971Z,101776.96
2018-05-18T13:55:57.304Z,101769.86
2018-05-18T13:58:25.446Z,101765.55
2018-05-18T14:00:53.591Z,101764.87
2018-05-18T14:03:21.796Z,101771.48
2018-05-18T14:05:49.895Z,101753.30
2018-05-18T14:08:18.045Z,101764.37
2018-05-18T14:10:46.196Z,101749.82
2018-05-18T14:13:14.390Z,101748.70
2018-05-18T14:15:42.573Z,101744.88
2018-05-18T14:18:10.691Z,101755.05
2018-05-18T14:20:38.815Z,101757.86
2018-05-18T14:23:06.941Z,101752.83
2018-05-18T14:25:35.096Z,101751.69
2018-05-18T14:28:03.217Z,101744.91
2018-05-18T14:30:31.341Z,101750.50
2018-05-18T14:32:59.512Z,101749.27
2018-05-18T14:35:27.638Z,101747.58
2018-05-18T14:37:55.863Z,101747.31
2018-05-18T14:40:24.031Z,101752.14
2018-05-18T14:42:52.153Z,101746.78
2018-05-18T14:45:20.273Z,101741.74
2018-05-18T14:47:48.410Z,101740.03
2018-05-18T14:50:16.551Z,101739.02
2018-05-18T14:52:44.671Z,101739.95
2018-05-18T14:55:12.803Z,101743.36
2018-05-18T14:57:41.015Z,101741.66
2018-05-18T15:00:09.145Z,101737.61
2018-05-18T15:02:37.288Z,101735.78
2018-05-18T15:05:05.413Z,101737.41
2018-05-18T15:07:33.547Z,101745.70
2018-05-18T15:10:01.714Z,101735.20
2018-05-18T15:12:29.834Z,101730.05
2018-05-18T15:14:57.979Z,101734.74
2018-05-18T15:17:27.195Z,101737.34
2018-05-18T15:19:55.360Z,101729.89
2018-05-18T15:22:26.810Z,101732.29
2018-05-18T15:24:58.778Z,101733.52
2018-05-18T15:27:26.799Z,101730.20
2018-05-18T15:29:55.054Z,101724.36
2018-05-18T15:32:23.190Z,101725.42
2018-05-18T15:34:51.493Z,101726.16
2018-05-18T15:37:19.732Z,101722.67
2018-05-18T15:39:47.820Z,101725.86
2018-05-18T15:42:15.944Z,101728.53
2018-05-18T15:44:44.047Z,101730.86
2018-05-18T15:47:12.237Z,101731.87
2018-05-18T15:49:40.341Z,101722.47
2018-05-18T15:52:08.451Z,101727.45
2018-05-18T15:54:36.584Z,101731.22
2018-05-18T15:57:04.724Z,101724.72
2018-05-18T15:59:32.858Z,101723.26
2018-05-18T16:02:01.027Z,101728.84
2018-05-18T16:04:29.145Z,101730.75
2018-05-18T16:06:57.282Z,101727.31
2018-05-18T16:09:25.469Z,101731.11
2018-05-18T16:11:53.670Z,101728.98
2018-05-18T16:14:22.070Z,101730.19
2018-05-18T16:16:50.215Z,101738.23
2018-05-18T16:19:18.333Z,101729.86
2018-05-18T16:21:46.464Z,101730.28
2018-05-18T16:24:15.628Z,101726.13
2018-05-18T16:26:43.742Z,101736.25
2018-05-18T16:29:11.888Z,101728.97
2018-05-18T16:31:40.030Z,101738.08
2018-05-18T16:34:08.148Z,101732.88
2018-05-18T16:36:36.254Z,101735.08
2018-05-18T16:39:04.394Z,101734.71
2018-05-18T16:41:36.283Z,101737.28
2018-05-18T16:44:04.419Z,101735.70
2018-05-18T16:46:32.544Z,101729.59
2018-05-18T16:49:00.669Z,101731.25
2018-05-18T16:51:28.794Z,101731.30
2018-05-18T16:53:56.952Z,101730.73
2018-05-18T16:56:25.088Z,101728.43
2018-05-18T16:58:53.222Z,101729.05
2018-05-18T17:01:21.356Z,101731.67
2018-05-18T17:03:49.491Z,101734.84
2018-05-18T17:06:17.623Z,101734.77
2018-05-18T17:08:45.743Z,101740.87
2018-05-18T17:11:14.078Z,101735.30
2018-05-18T17:13:42.211Z,101737.05
2018-05-18T17:16:10.354Z,101735.30
2018-05-18T17:18:38.488Z,101731.30
2018-05-18T17:21:06.631Z,101732.31
2018-05-18T17:23:34.996Z,101729.27
2018-05-18T17:26:03.113Z,101736.67
2018-05-18T17:28:31.235Z,101733.27
2018-05-18T17:30:59.374Z,101731.67
2018-05-18T17:33:27.503Z,101731.55
2018-05-18T17:35:55.643Z,101734.81
2018-05-18T17:38:23.777Z,101732.11
2018-05-18T17:40:51.893Z,101735.89
2018-05-18T17:43:20.009Z,101736.19
2018-05-18T17:45:48.145Z,101733.70
2018-05-18T17:48:18.163Z,101742.00
2018-05-18T17:50:46.316Z,101731.23
2018-05-18T17:53:14.453Z,101732.03
2018-05-18T17:55:42.592Z,101726.33
2018-05-18T17:58:10.714Z,101733.57
2018-05-18T18:00:38.871Z,101730.83
2018-05-18T18:03:07.004Z,101726.65
2018-05-18T18:05:35.134Z,101729.98
2018-05-18T18:08:03.265Z,101723.24
2018-05-18T18:10:31.394Z,101728.25
2018-05-18T18:12:59.532Z,101738.16
2018-05-18T18:15:27.646Z,101731.80
2018-05-18T18:17:55.778Z,101742.54
2018-05-18T18:20:23.875Z,101725.17
2018-05-18T18:22:52.004Z,101732.26
2018-05-18T18:25:20.129Z,101726.23
2018-05-18T18:27:48.272Z,101734.08
2018-05-18T18:30:16.405Z,101732.08
2018-05-18T18:32:44.526Z,101729.18
2018-05-18T18:35:12.664Z,101732.51
2018-05-18T18:37:40.779Z,101733.50
2018-05-18T18:40:08.890Z,101724.80
2018-05-18T18:42:37.024Z,101734.16
2018-05-18T18:45:05.153Z,101736.58
2018-05-18T18:47:33.400Z,101733.62
2018-05-18T18:50:01.531Z,101735.45
2018-05-18T18:52:29.653Z,101736.93
2018-05-18T18:54:57.760Z,101738.83
2018-05-18T18:57:25.905Z,101734.39
2018-05-18T18:59:54.047Z,101732.25
2018-05-18T19:02:22.178Z,101742.00
2018-05-18T19:04:50.298Z,101745.83
2018-05-18T19:07:18.588Z,101748.16
2018-05-18T19:09:46.724Z,101745.02
2018-05-18T19:12:14.827Z,101750.56
2018-05-18T19:14:42.952Z,101742.36
2018-05-18T19:17:11.078Z,101751.38
2018-05-18T19:19:39.194Z,101759.89
2018-05-18T19:22:07.333Z,101760.70
2018-05-18T19:24:35.457Z,101760.88
2018-05-18T19:27:03.605Z,101764.84
2018-05-18T19:29:31.719Z,101759.06
2018-05-18T19:31:59.860Z,101758.91
2018-05-18T19:34:27.991Z,101756.45
2018-05-18T19:36:56.298Z,101765.31
2018-05-18T19:39:24.419Z,101765.75
2018-05-18T19:41:52.976Z,101762.34
2018-05-18T19:44:22.275Z,101768.84
2018-05-18T19:46:50.413Z,101771.47
2018-05-18T19:49:18.532Z,101769.74
2018-05-18T19:51:47.148Z,101772.02
2018-05-18T19:54:15.284Z,101774.35
2018-05-18T19:56:43.427Z,101772.94
2018-05-18T19:59:11.567Z,101771.88
2018-05-18T20:01:39.676Z,101775.73
2018-05-18T20:04:07.827Z,101783.16
2018-05-18T20:06:35.948Z,101789.87
2018-05-18T20:09:04.071Z,101783.85
2018-05-18T20:11:32.305Z,101786.16
2018-05-18T20:14:00.473Z,101790.47
2018-05-18T20:16:28.612Z,101789.13
2018-05-18T20:18:56.707Z,101797.08
2018-05-18T20:21:24.842Z,101792.68
2018-05-18T20:23:52.975Z,101796.52
2018-05-18T20:26:21.115Z,101793.26
2018-05-18T20:28:49.254Z,101797.99
2018-05-18T20:31:17.389Z,101793.39
2018-05-18T20:33:45.520Z,101796.52
2018-05-18T20:36:13.638Z,101799.45
2018-05-18T20:38:41.787Z,101798.88
2018-05-18T20:41:09.921Z,101802.35
2018-05-18T20:43:38.062Z,101801.93
2018-05-18T20:46:06.183Z,101808.79
2018-05-18T20:48:34.302Z,101808.83
2018-05-18T20:51:02.723Z,101808.52
2018-05-18T20:53:30.870Z,101812.59
2018-05-18T20:55:58.988Z,101820.02
2018-05-18T20:58:27.209Z,101818.58
2018-05-18T21:00:55.236Z,101829.24
2018-05-18T21:03:23.381Z,101822.08
2018-05-18T21:05:51.507Z,101818.30
2018-05-18T21:08:19.726Z,101826.68
2018-05-18T21:10:47.824Z,101828.52
2018-05-18T21:13:16.045Z,101828.62
2018-05-18T21:15:44.178Z,101826.64
2018-05-18T21:18:12.293Z,101827.87
2018-05-18T21:20:40.460Z,101828.61
2018-05-18T21:23:08.562Z,101822.34
2018-05-18T21:25:36.725Z,101826.88
2018-05-18T21:28:04.871Z,101827.77
2018-05-18T21:30:33.059Z,101828.15
2018-05-18T21:33:01.113Z,101836.02
2018-05-18T21:35:29.253Z,101832.05
2018-05-18T21:37:57.355Z,101832.99
2018-05-18T21:40:25.480Z,101830.20
2018-05-18T21:42:53.623Z,101838.08
2018-05-18T21:45:21.733Z,101837.70
2018-05-18T21:47:49.862Z,101846.06
2018-05-18T21:50:18.020Z,101848.86
2018-05-18T21:52:46.155Z,101841.03
2018-05-18T21:55:14.301Z,101849.27
2018-05-18T21:57:42.541Z,101852.56
2018-05-18T22:00:10.647Z,101851.61
2018-05-18T22:02:38.750Z,101853.70
2018-05-18T22:05:06.884Z,101860.53
2018-05-18T22:07:35.017Z,101856.56
2018-05-18T22:10:03.118Z,101858.61
2018-05-18T22:12:31.258Z,101855.39
2018-05-18T22:14:59.385Z,101857.36
2018-05-18T22:17:27.513Z,101847.73
2018-05-18T22:19:55.645Z,101841.73
2018-05-18T22:22:23.797Z,101846.09
2018-05-18T22:24:51.919Z,101843.45
2018-05-18T22:27:20.038Z,101842.60
2018-05-18T22:29:48.219Z,101848.02
2018-05-18T22:32:16.376Z,101841.73
2018-05-18T22:34:44.491Z,101847.99
2018-05-18T22:37:12.614Z,101847.53
2018-05-18T22:39:40.741Z,101841.81
2018-05-18T22:42:08.859Z,101842.89
2018-05-18T22:44:37.003Z,101838.80
2018-05-18T22:47:05.129Z,101844.30
2018-05-18T22:49:33.247Z,101841.85
2018-05-18T22:52:01.381Z,101844.06
2018-05-18T22:54:29.520Z,101843.53
2018-05-18T22:56:57.638Z,101839.38
2018-05-18T22:59:25.890Z,101842.66
2018-05-18T23:01:54.039Z,101848.99
2018-05-18T23:04:22.191Z,101850.77
2018-05-18T23:06:50.302Z,101848.48
2018-05-18T23:09:18.431Z,101853.46
2018-05-18T23:11:46.815Z,101849.19
2018-05-18T23:14:14.936Z,101851.81
2018-05-18T23:16:43.061Z,101850.48
2018-05-18T23:19:11.202Z,101850.69
2018-05-18T23:21:39.319Z,101848.22
2018-05-18T23:24:07.446Z,101846.33
2018-05-18T23:26:35.592Z,101844.75
2018-05-18T23:29:03.719Z,101848.63
2018-05-18T23:31:31.849Z,101845.62
2018-05-18T23:34:00.195Z,101847.48
2018-05-18T23:36:28.333Z,101846.75
2018-05-18T23:38:56.451Z,101851.20
2018-05-18T23:41:24.603Z,101843.73
2018-05-18T23:43:52.712Z,101847.05
2018-05-18T23:46:20.833Z,101846.42
2018-05-18T23:48:48.955Z,101849.97
2018-05-18T23:51:17.058Z,101845.20
2018-05-18T23:53:45.166Z,101844.57
2018-05-18T23:56:13.339Z,101837.30
2018-05-18T23:58:41.457Z,101844.38
